sensor_id;sensor_type;location;lat;lon;timestamp;pressure;altitude;pressure_sealevel;temperature;humidity
40171;BME280;37650;52.790;18.268;2023-04-28T00:00:44;101027.02;;;2.40;80.88
40171;BME280;37650;52.790;18.268;2023-04-28T00:04:07;101024.92;;;2.36;81.13
40171;BME280;37650;52.790;18.268;2023-04-28T00:07:28;101022.13;;;2.32;81.29
40171;BME280;37650;52.790;18.268;2023-04-28T00:10:49;101026.61;;;2.29;81.51
40171;BME280;37650;52.790;18.268;2023-04-28T00:14:10;101027.98;;;2.27;81.29
40171;BME280;37650;52.790;18.268;2023-04-28T00:17:32;101030.20;;;2.24;81.58
40171;BME280;37650;52.790;18.268;2023-04-28T00:20:54;101027.41;;;2.21;82.04
40171;BME280;37650;52.790;18.268;2023-04-28T00:24:15;101031.02;;;2.16;81.90
40171;BME280;37650;52.790;18.268;2023-04-28T00:27:37;101034.12;;;2.13;82.06
40171;BME280;37650;52.790;18.268;2023-04-28T00:30:58;101032.38;;;2.14;81.86
40171;BME280;37650;52.790;18.268;2023-04-28T00:34:19;101039.16;;;2.17;82.12
40171;BME280;37650;52.790;18.268;2023-04-28T00:37:42;101035.05;;;2.24;82.11
40171;BME280;37650;52.790;18.268;2023-04-28T00:41:04;101034.73;;;2.28;82.31
40171;BME280;37650;52.790;18.268;2023-04-28T00:44:25;101036.48;;;2.30;82.33
40171;BME280;37650;52.790;18.268;2023-04-28T00:47:46;101036.30;;;2.28;82.34
40171;BME280;37650;52.790;18.268;2023-04-28T00:51:07;101037.14;;;2.25;82.46
40171;BME280;37650;52.790;18.268;2023-04-28T00:54:29;101036.76;;;2.21;82.54
40171;BME280;37650;52.790;18.268;2023-04-28T00:57:50;101034.31;;;2.17;82.59
40171;BME280;37650;52.790;18.268;2023-04-28T01:01:12;101030.27;;;2.09;82.58
40171;BME280;37650;52.790;18.268;2023-04-28T01:04:34;101030.20;;;1.98;82.78
40171;BME280;37650;52.790;18.268;2023-04-28T01:07:56;101028.41;;;1.93;83.31
40171;BME280;37650;52.790;18.268;2023-04-28T01:11:18;101030.98;;;1.90;83.51
40171;BME280;37650;52.790;18.268;2023-04-28T01:14:55;101031.64;;;1.86;83.69
40171;BME280;37650;52.790;18.268;2023-04-28T01:18:17;101035.77;;;1.84;83.80
40171;BME280;37650;52.790;18.268;2023-04-28T01:21:38;101032.34;;;1.87;84.21
40171;BME280;37650;52.790;18.268;2023-04-28T01:25:26;101030.32;;;1.94;84.38
40171;BME280;37650;52.790;18.268;2023-04-28T01:28:47;101029.70;;;2.01;84.47
40171;BME280;37650;52.790;18.268;2023-04-28T01:32:09;101031.46;;;2.06;84.61
40171;BME280;37650;52.790;18.268;2023-04-28T01:35:30;101031.66;;;2.09;84.87
40171;BME280;37650;52.790;18.268;2023-04-28T01:38:51;101031.31;;;2.10;84.91
40171;BME280;37650;52.790;18.268;2023-04-28T01:42:13;101026.27;;;2.05;84.85
40171;BME280;37650;52.790;18.268;2023-04-28T01:45:34;101027.09;;;2.00;84.98
40171;BME280;37650;52.790;18.268;2023-04-28T01:48:55;101024.96;;;1.93;85.23
40171;BME280;37650;52.790;18.268;2023-04-28T01:52:17;101026.80;;;1.87;85.38
40171;BME280;37650;52.790;18.268;2023-04-28T01:55:40;101023.47;;;1.81;85.39
40171;BME280;37650;52.790;18.268;2023-04-28T01:59:01;101026.02;;;1.75;85.81
40171;BME280;37650;52.790;18.268;2023-04-28T02:02:22;101025.16;;;1.76;85.84
40171;BME280;37650;52.790;18.268;2023-04-28T02:05:43;101026.90;;;1.79;85.88
40171;BME280;37650;52.790;18.268;2023-04-28T02:09:05;101026.93;;;1.81;85.75
40171;BME280;37650;52.790;18.268;2023-04-28T02:12:27;101027.08;;;1.79;86.08
40171;BME280;37650;52.790;18.268;2023-04-28T02:15:49;101026.13;;;1.71;86.01
40171;BME280;37650;52.790;18.268;2023-04-28T02:19:10;101021.08;;;1.66;86.32
40171;BME280;37650;52.790;18.268;2023-04-28T02:22:31;101021.02;;;1.60;86.61
40171;BME280;37650;52.790;18.268;2023-04-28T02:26:00;101026.68;;;1.55;86.51
40171;BME280;37650;52.790;18.268;2023-04-28T02:29:21;101025.24;;;1.50;86.87
40171;BME280;37650;52.790;18.268;2023-04-28T02:32:42;101027.27;;;1.44;87.12
40171;BME280;37650;52.790;18.268;2023-04-28T02:36:05;101025.10;;;1.37;87.16
40171;BME280;37650;52.790;18.268;2023-04-28T02:39:26;101027.98;;;1.30;87.39
40171;BME280;37650;52.790;18.268;2023-04-28T02:42:51;101032.42;;;1.25;87.45
40171;BME280;37650;52.790;18.268;2023-04-28T02:46:12;101032.98;;;1.28;87.31
40171;BME280;37650;52.790;18.268;2023-04-28T02:49:33;101028.70;;;1.33;87.78
40171;BME280;37650;52.790;18.268;2023-04-28T02:52:54;101029.23;;;1.35;87.55
40171;BME280;37650;52.790;18.268;2023-04-28T02:56:15;101028.72;;;1.36;88.08
40171;BME280;37650;52.790;18.268;2023-04-28T02:59:37;101024.20;;;1.32;88.09
40171;BME280;37650;52.790;18.268;2023-04-28T03:02:58;101028.97;;;1.25;88.17
40171;BME280;37650;52.790;18.268;2023-04-28T03:06:19;101028.35;;;1.16;88.10
40171;BME280;37650;52.790;18.268;2023-04-28T03:09:40;101030.03;;;1.13;88.19
40171;BME280;37650;52.790;18.268;2023-04-28T03:13:01;101026.34;;;1.08;88.43
40171;BME280;37650;52.790;18.268;2023-04-28T03:16:23;101024.70;;;1.01;88.32
40171;BME280;37650;52.790;18.268;2023-04-28T03:19:44;101026.20;;;0.95;88.41
40171;BME280;37650;52.790;18.268;2023-04-28T03:23:06;101024.27;;;0.93;88.31
40171;BME280;37650;52.790;18.268;2023-04-28T03:26:28;101023.55;;;0.90;88.03
40171;BME280;37650;52.790;18.268;2023-04-28T03:29:49;101025.11;;;0.92;88.25
40171;BME280;37650;52.790;18.268;2023-04-28T03:33:10;101029.98;;;0.93;88.59
40171;BME280;37650;52.790;18.268;2023-04-28T03:36:32;101031.15;;;0.91;88.50
40171;BME280;37650;52.790;18.268;2023-04-28T03:39:59;101029.77;;;0.90;88.67
40171;BME280;37650;52.790;18.268;2023-04-28T03:43:21;101033.55;;;0.90;88.42
40171;BME280;37650;52.790;18.268;2023-04-28T03:47:13;101041.72;;;0.80;88.18
40171;BME280;37650;52.790;18.268;2023-04-28T03:50:34;101045.95;;;0.73;89.09
40171;BME280;37650;52.790;18.268;2023-04-28T03:53:55;101044.33;;;0.81;89.80
40171;BME280;37650;52.790;18.268;2023-04-28T03:57:16;101050.16;;;0.91;90.14
40171;BME280;37650;52.790;18.268;2023-04-28T04:00:38;101052.18;;;1.02;89.96
40171;BME280;37650;52.790;18.268;2023-04-28T04:04:00;101052.16;;;1.14;90.21
40171;BME280;37650;52.790;18.268;2023-04-28T04:07:22;101051.24;;;1.24;90.36
40171;BME280;37650;52.790;18.268;2023-04-28T04:10:44;101050.68;;;1.35;90.29
40171;BME280;37650;52.790;18.268;2023-04-28T04:14:05;101054.18;;;1.40;90.15
40171;BME280;37650;52.790;18.268;2023-04-28T04:17:29;101056.29;;;1.42;90.46
40171;BME280;37650;52.790;18.268;2023-04-28T04:20:50;101055.80;;;1.45;90.71
40171;BME280;37650;52.790;18.268;2023-04-28T04:24:14;101056.55;;;1.51;90.69
40171;BME280;37650;52.790;18.268;2023-04-28T04:27:35;101057.02;;;1.62;90.81
40171;BME280;37650;52.790;18.268;2023-04-28T04:30:55;101060.96;;;1.76;91.19
40171;BME280;37650;52.790;18.268;2023-04-28T04:34:17;101062.96;;;1.86;91.47
40171;BME280;37650;52.790;18.268;2023-04-28T04:37:39;101058.19;;;1.95;90.98
40171;BME280;37650;52.790;18.268;2023-04-28T04:41:00;101054.98;;;2.03;90.82
40171;BME280;37650;52.790;18.268;2023-04-28T04:44:21;101053.98;;;2.09;90.59
40171;BME280;37650;52.790;18.268;2023-04-28T04:47:47;101055.98;;;2.20;90.74
40171;BME280;37650;52.790;18.268;2023-04-28T04:51:09;101055.02;;;2.31;90.81
40171;BME280;37650;52.790;18.268;2023-04-28T04:54:30;101056.53;;;2.49;90.47
40171;BME280;37650;52.790;18.268;2023-04-28T04:57:52;101051.11;;;2.71;89.99
40171;BME280;37650;52.790;18.268;2023-04-28T05:01:24;101056.94;;;2.90;89.62
40171;BME280;37650;52.790;18.268;2023-04-28T05:04:46;101056.48;;;3.04;89.13
40171;BME280;37650;52.790;18.268;2023-04-28T05:08:07;101060.35;;;3.17;88.95
40171;BME280;37650;52.790;18.268;2023-04-28T05:11:29;101060.23;;;3.33;88.64
40171;BME280;37650;52.790;18.268;2023-04-28T05:14:50;101058.73;;;3.50;87.76
40171;BME280;37650;52.790;18.268;2023-04-28T05:18:13;101061.52;;;3.60;87.52
40171;BME280;37650;52.790;18.268;2023-04-28T05:21:34;101056.17;;;3.81;87.14
40171;BME280;37650;52.790;18.268;2023-04-28T05:24:56;101052.36;;;4.08;86.87
40171;BME280;37650;52.790;18.268;2023-04-28T05:28:17;101054.98;;;4.32;85.88
40171;BME280;37650;52.790;18.268;2023-04-28T05:31:39;101058.77;;;4.58;85.72
40171;BME280;37650;52.790;18.268;2023-04-28T05:35:03;101057.98;;;4.89;85.13
40171;BME280;37650;52.790;18.268;2023-04-28T05:38:25;101055.27;;;5.21;84.22
40171;BME280;37650;52.790;18.268;2023-04-28T05:41:50;101055.61;;;5.54;83.94
40171;BME280;37650;52.790;18.268;2023-04-28T05:45:11;101053.85;;;5.85;83.28
40171;BME280;37650;52.790;18.268;2023-04-28T05:48:33;101051.88;;;6.17;82.53
40171;BME280;37650;52.790;18.268;2023-04-28T05:51:55;101055.78;;;6.48;81.90
40171;BME280;37650;52.790;18.268;2023-04-28T05:55:16;101058.23;;;6.82;81.15
40171;BME280;37650;52.790;18.268;2023-04-28T05:58:37;101066.05;;;7.00;78.82
40171;BME280;37650;52.790;18.268;2023-04-28T06:01:59;101061.48;;;7.18;78.57
40171;BME280;37650;52.790;18.268;2023-04-28T06:05:21;101059.58;;;7.56;77.79
40171;BME280;37650;52.790;18.268;2023-04-28T06:08:44;101050.60;;;7.84;76.49
40171;BME280;37650;52.790;18.268;2023-04-28T06:12:06;101051.83;;;8.07;75.65
40171;BME280;37650;52.790;18.268;2023-04-28T06:15:28;101053.90;;;8.29;74.44
40171;BME280;37650;52.790;18.268;2023-04-28T06:18:49;101050.00;;;8.55;72.86
40171;BME280;37650;52.790;18.268;2023-04-28T06:22:11;101048.36;;;8.85;72.41
40171;BME280;37650;52.790;18.268;2023-04-28T06:25:33;101046.91;;;9.13;71.06
40171;BME280;37650;52.790;18.268;2023-04-28T06:28:54;101044.48;;;9.38;70.20
40171;BME280;37650;52.790;18.268;2023-04-28T06:32:15;101044.13;;;9.54;68.36
40171;BME280;37650;52.790;18.268;2023-04-28T06:35:36;101043.05;;;9.78;67.73
40171;BME280;37650;52.790;18.268;2023-04-28T06:38:59;101042.08;;;10.11;67.39
40171;BME280;37650;52.790;18.268;2023-04-28T06:42:20;101043.14;;;10.40;64.55
40171;BME280;37650;52.790;18.268;2023-04-28T06:45:52;101043.56;;;10.50;62.38
40171;BME280;37650;52.790;18.268;2023-04-28T06:49:14;101039.52;;;10.64;62.17
40171;BME280;37650;52.790;18.268;2023-04-28T06:52:36;101041.66;;;10.82;61.32
40171;BME280;37650;52.790;18.268;2023-04-28T06:55:58;101038.20;;;11.05;61.46
40171;BME280;37650;52.790;18.268;2023-04-28T06:59:21;101040.35;;;11.45;58.32
40171;BME280;37650;52.790;18.268;2023-04-28T07:02:42;101039.46;;;11.57;56.97
40171;BME280;37650;52.790;18.268;2023-04-28T07:06:04;101030.17;;;11.62;56.53
40171;BME280;37650;52.790;18.268;2023-04-28T07:09:26;101025.13;;;12.00;58.45
40171;BME280;37650;52.790;18.268;2023-04-28T07:12:49;101025.79;;;12.33;55.81
40171;BME280;37650;52.790;18.268;2023-04-28T07:16:11;101019.19;;;12.60;56.39
40171;BME280;37650;52.790;18.268;2023-04-28T07:19:33;101015.96;;;12.62;51.82
40171;BME280;37650;52.790;18.268;2023-04-28T07:22:54;101014.34;;;12.68;51.68
40171;BME280;37650;52.790;18.268;2023-04-28T07:26:15;101009.68;;;12.85;50.37
40171;BME280;37650;52.790;18.268;2023-04-28T07:29:36;100999.14;;;13.08;50.36
40171;BME280;37650;52.790;18.268;2023-04-28T07:32:57;100996.08;;;13.25;49.63
40171;BME280;37650;52.790;18.268;2023-04-28T07:36:19;100998.84;;;13.35;46.17
40171;BME280;37650;52.790;18.268;2023-04-28T07:39:40;100992.65;;;13.18;46.99
40171;BME280;37650;52.790;18.268;2023-04-28T07:43:02;100993.79;;;13.34;45.94
40171;BME280;37650;52.790;18.268;2023-04-28T07:46:23;100983.70;;;13.57;44.64
40171;BME280;37650;52.790;18.268;2023-04-28T07:49:44;100982.59;;;13.49;43.42
40171;BME280;37650;52.790;18.268;2023-04-28T07:53:05;100983.30;;;13.44;42.11
40171;BME280;37650;52.790;18.268;2023-04-28T07:56:27;100983.61;;;13.59;41.28
40171;BME280;37650;52.790;18.268;2023-04-28T07:59:47;100981.30;;;13.85;41.94
40171;BME280;37650;52.790;18.268;2023-04-28T08:03:08;100978.28;;;14.03;40.50
40171;BME280;37650;52.790;18.268;2023-04-28T08:06:29;100977.63;;;14.18;40.25
40171;BME280;37650;52.790;18.268;2023-04-28T08:09:51;100980.33;;;13.66;39.99
40171;BME280;37650;52.790;18.268;2023-04-28T08:13:13;100976.64;;;13.07;40.88
40171;BME280;37650;52.790;18.268;2023-04-28T08:16:36;100972.17;;;12.80;39.97
40171;BME280;37650;52.790;18.268;2023-04-28T08:20:00;100966.91;;;13.31;40.98
40171;BME280;37650;52.790;18.268;2023-04-28T08:23:21;100966.34;;;14.06;40.06
40171;BME280;37650;52.790;18.268;2023-04-28T08:26:42;100960.82;;;14.45;38.13
40171;BME280;37650;52.790;18.268;2023-04-28T08:30:06;100957.83;;;14.60;36.79
40171;BME280;37650;52.790;18.268;2023-04-28T08:33:28;100952.88;;;15.07;35.76
40171;BME280;37650;52.790;18.268;2023-04-28T08:36:50;100945.14;;;15.36;37.51
40171;BME280;37650;52.790;18.268;2023-04-28T08:40:12;100942.09;;;15.91;36.69
40171;BME280;37650;52.790;18.268;2023-04-28T08:43:36;100940.52;;;16.18;36.25
40171;BME280;37650;52.790;18.268;2023-04-28T08:47:01;100936.16;;;16.48;34.90
40171;BME280;37650;52.790;18.268;2023-04-28T08:50:24;100930.94;;;16.56;34.14
40171;BME280;37650;52.790;18.268;2023-04-28T08:53:49;100929.22;;;16.75;34.39
40171;BME280;37650;52.790;18.268;2023-04-28T08:57:12;100920.93;;;16.94;32.54
40171;BME280;37650;52.790;18.268;2023-04-28T09:00:36;100923.80;;;16.77;32.01
40171;BME280;37650;52.790;18.268;2023-04-28T09:04:01;100920.77;;;16.77;32.00
40171;BME280;37650;52.790;18.268;2023-04-28T09:07:23;100921.16;;;16.83;32.35
40171;BME280;37650;52.790;18.268;2023-04-28T09:10:44;100917.27;;;16.60;32.79
40171;BME280;37650;52.790;18.268;2023-04-28T09:14:12;100916.20;;;15.75;32.43
40171;BME280;37650;52.790;18.268;2023-04-28T09:17:46;100913.92;;;14.94;34.07
40171;BME280;37650;52.790;18.268;2023-04-28T09:21:08;100912.74;;;15.22;34.09
40171;BME280;37650;52.790;18.268;2023-04-28T09:24:36;100909.60;;;15.36;34.54
40171;BME280;37650;52.790;18.268;2023-04-28T09:28:18;100903.96;;;16.00;34.82
40171;BME280;37650;52.790;18.268;2023-04-28T09:31:39;100895.05;;;16.68;34.64
40171;BME280;37650;52.790;18.268;2023-04-28T09:35:02;100895.23;;;17.04;32.53
40171;BME280;37650;52.790;18.268;2023-04-28T09:38:24;100896.59;;;17.20;32.71
40171;BME280;37650;52.790;18.268;2023-04-28T09:41:46;100891.30;;;17.26;32.21
40171;BME280;37650;52.790;18.268;2023-04-28T09:45:10;100895.36;;;17.54;31.23
40171;BME280;37650;52.790;18.268;2023-04-28T09:48:33;100896.23;;;16.89;31.87
40171;BME280;37650;52.790;18.268;2023-04-28T09:52:11;100893.80;;;16.91;31.90
40171;BME280;37650;52.790;18.268;2023-04-28T09:55:33;100887.34;;;17.14;32.54
40171;BME280;37650;52.790;18.268;2023-04-28T09:58:57;100883.73;;;16.87;31.34
40171;BME280;37650;52.790;18.268;2023-04-28T10:02:21;100878.57;;;17.06;32.90
40171;BME280;37650;52.790;18.268;2023-04-28T10:05:43;100872.95;;;17.65;32.26
40171;BME280;37650;52.790;18.268;2023-04-28T10:09:05;100870.20;;;17.60;32.81
40171;BME280;37650;52.790;18.268;2023-04-28T10:12:27;100863.41;;;17.82;32.37
40171;BME280;37650;52.790;18.268;2023-04-28T10:15:50;100859.45;;;17.92;31.79
40171;BME280;37650;52.790;18.268;2023-04-28T10:19:14;100859.04;;;17.38;30.63
40171;BME280;37650;52.790;18.268;2023-04-28T10:22:58;100855.95;;;16.51;32.39
40171;BME280;37650;52.790;18.268;2023-04-28T10:30:15;100845.09;;;17.21;32.26
40171;BME280;37650;52.790;18.268;2023-04-28T10:33:37;100845.52;;;17.57;32.29
40171;BME280;37650;52.790;18.268;2023-04-28T10:36:59;100844.66;;;17.57;32.08
40171;BME280;37650;52.790;18.268;2023-04-28T10:40:38;100840.48;;;17.65;32.10
40171;BME280;37650;52.790;18.268;2023-04-28T10:43:59;100841.51;;;17.86;31.89
40171;BME280;37650;52.790;18.268;2023-04-28T10:47:21;100833.24;;;18.08;32.27
40171;BME280;37650;52.790;18.268;2023-04-28T10:54:25;100827.06;;;19.04;31.54
40171;BME280;37650;52.790;18.268;2023-04-28T11:01:38;100818.13;;;18.69;31.21
40171;BME280;37650;52.790;18.268;2023-04-28T11:05:09;100819.43;;;18.31;31.34
40171;BME280;37650;52.790;18.268;2023-04-28T11:08:31;100817.27;;;17.85;31.49
40171;BME280;37650;52.790;18.268;2023-04-28T11:15:21;100805.86;;;17.20;32.49
40171;BME280;37650;52.790;18.268;2023-04-28T11:22:16;100797.57;;;17.15;33.09
40171;BME280;37650;52.790;18.268;2023-04-28T11:25:54;100790.74;;;17.35;33.47
40171;BME280;37650;52.790;18.268;2023-04-28T11:29:15;100790.27;;;18.03;33.04
40171;BME280;37650;52.790;18.268;2023-04-28T11:32:37;100790.92;;;18.21;31.62
40171;BME280;37650;52.790;18.268;2023-04-28T11:36:00;100793.84;;;18.05;32.21
40171;BME280;37650;52.790;18.268;2023-04-28T11:39:26;100796.70;;;18.28;31.87
40171;BME280;37650;52.790;18.268;2023-04-28T11:42:50;100791.63;;;18.21;31.75
40171;BME280;37650;52.790;18.268;2023-04-28T11:46:19;100789.29;;;18.04;31.54
40171;BME280;37650;52.790;18.268;2023-04-28T11:49:43;100786.04;;;17.93;32.33
40171;BME280;37650;52.790;18.268;2023-04-28T11:53:04;100781.29;;;18.27;32.60
40171;BME280;37650;52.790;18.268;2023-04-28T11:56:26;100775.89;;;18.59;31.47
40171;BME280;37650;52.790;18.268;2023-04-28T11:59:48;100783.52;;;17.94;31.21
40171;BME280;37650;52.790;18.268;2023-04-28T12:03:09;100779.46;;;17.91;31.58
40171;BME280;37650;52.790;18.268;2023-04-28T12:06:31;100778.20;;;17.71;31.54
40171;BME280;37650;52.790;18.268;2023-04-28T12:10:13;100775.98;;;17.90;32.09
40171;BME280;37650;52.790;18.268;2023-04-28T12:13:38;100768.73;;;18.12;32.66
40171;BME280;37650;52.790;18.268;2023-04-28T12:17:00;100765.73;;;18.57;33.02
40171;BME280;37650;52.790;18.268;2023-04-28T12:20:38;100767.08;;;19.18;32.38
40171;BME280;37650;52.790;18.268;2023-04-28T12:23:59;100761.59;;;19.31;31.00
40171;BME280;37650;52.790;18.268;2023-04-28T12:27:20;100764.08;;;19.15;31.02
40171;BME280;37650;52.790;18.268;2023-04-28T12:30:41;100758.88;;;18.78;30.33
40171;BME280;37650;52.790;18.268;2023-04-28T12:34:03;100747.97;;;18.26;31.11
40171;BME280;37650;52.790;18.268;2023-04-28T12:37:25;100740.04;;;18.25;31.90
40171;BME280;37650;52.790;18.268;2023-04-28T12:40:46;100738.77;;;18.62;32.09
40171;BME280;37650;52.790;18.268;2023-04-28T12:44:08;100736.70;;;18.85;31.34
40171;BME280;37650;52.790;18.268;2023-04-28T12:47:30;100733.73;;;18.93;31.14
40171;BME280;37650;52.790;18.268;2023-04-28T12:50:51;100731.32;;;19.05;31.16
40171;BME280;37650;52.790;18.268;2023-04-28T12:54:12;100718.73;;;19.20;31.99
40171;BME280;37650;52.790;18.268;2023-04-28T12:57:34;100713.05;;;19.64;31.64
40171;BME280;37650;52.790;18.268;2023-04-28T13:00:56;100709.19;;;19.27;30.41
40171;BME280;37650;52.790;18.268;2023-04-28T13:04:17;100706.33;;;18.88;31.11
40171;BME280;37650;52.790;18.268;2023-04-28T13:07:38;100703.09;;;19.05;31.87
40171;BME280;37650;52.790;18.268;2023-04-28T13:10:59;100699.00;;;19.07;31.35
40171;BME280;37650;52.790;18.268;2023-04-28T13:14:21;100693.34;;;18.91;31.50
40171;BME280;37650;52.790;18.268;2023-04-28T13:17:42;100684.23;;;18.78;31.63
40171;BME280;37650;52.790;18.268;2023-04-28T13:21:05;100680.54;;;18.45;32.15
40171;BME280;37650;52.790;18.268;2023-04-28T13:24:27;100678.96;;;18.17;31.76
40171;BME280;37650;52.790;18.268;2023-04-28T13:27:47;100670.96;;;17.84;32.42
40171;BME280;37650;52.790;18.268;2023-04-28T13:31:08;100671.29;;;17.87;32.88
40171;BME280;37650;52.790;18.268;2023-04-28T13:34:29;100666.15;;;17.73;32.40
40171;BME280;37650;52.790;18.268;2023-04-28T13:37:51;100664.99;;;17.27;33.26
40171;BME280;37650;52.790;18.268;2023-04-28T13:41:16;100663.65;;;17.20;33.95
40171;BME280;37650;52.790;18.268;2023-04-28T13:44:38;100659.08;;;17.25;34.27
40171;BME280;37650;52.790;18.268;2023-04-28T13:47:59;100654.77;;;17.21;34.41
40171;BME280;37650;52.790;18.268;2023-04-28T13:51:20;100646.77;;;17.39;34.34
40171;BME280;37650;52.790;18.268;2023-04-28T13:54:44;100636.78;;;17.60;34.45
40171;BME280;37650;52.790;18.268;2023-04-28T13:58:05;100633.89;;;17.75;33.77
40171;BME280;37650;52.790;18.268;2023-04-28T14:01:27;100633.92;;;17.68;33.91
40171;BME280;37650;52.790;18.268;2023-04-28T14:04:48;100630.64;;;17.98;34.01
40171;BME280;37650;52.790;18.268;2023-04-28T14:08:10;100619.70;;;18.05;33.54
40171;BME280;37650;52.790;18.268;2023-04-28T14:11:32;100614.56;;;18.24;33.78
40171;BME280;37650;52.790;18.268;2023-04-28T14:14:53;100612.40;;;18.52;34.21
40171;BME280;37650;52.790;18.268;2023-04-28T14:18:14;100608.48;;;18.52;33.50
40171;BME280;37650;52.790;18.268;2023-04-28T14:21:35;100602.40;;;18.39;33.40
40171;BME280;37650;52.790;18.268;2023-04-28T14:24:57;100599.18;;;18.56;34.26
40171;BME280;37650;52.790;18.268;2023-04-28T14:28:17;100594.98;;;19.07;33.90
40171;BME280;37650;52.790;18.268;2023-04-28T14:31:39;100595.63;;;19.61;33.49
40171;BME280;37650;52.790;18.268;2023-04-28T14:35:00;100591.95;;;20.86;31.79
40171;BME280;37650;52.790;18.268;2023-04-28T14:38:24;100587.38;;;21.80;30.14
40171;BME280;37650;52.790;18.268;2023-04-28T14:41:46;100585.45;;;22.17;28.77
40171;BME280;37650;52.790;18.268;2023-04-28T14:45:08;100581.41;;;22.99;29.15
40171;BME280;37650;52.790;18.268;2023-04-28T14:48:32;100579.23;;;23.59;27.61
40171;BME280;37650;52.790;18.268;2023-04-28T14:51:55;100575.15;;;23.73;27.97
40171;BME280;37650;52.790;18.268;2023-04-28T14:55:17;100572.91;;;23.97;27.44
40171;BME280;37650;52.790;18.268;2023-04-28T14:58:39;100569.95;;;23.73;26.87
40171;BME280;37650;52.790;18.268;2023-04-28T15:02:00;100571.65;;;22.48;27.57
40171;BME280;37650;52.790;18.268;2023-04-28T15:05:22;100571.38;;;22.12;28.36
40171;BME280;37650;52.790;18.268;2023-04-28T15:08:44;100570.91;;;20.95;28.97
40171;BME280;37650;52.790;18.268;2023-04-28T15:12:06;100562.37;;;20.05;30.30
40171;BME280;37650;52.790;18.268;2023-04-28T15:15:27;100553.20;;;19.32;31.26
40171;BME280;37650;52.790;18.268;2023-04-28T15:18:48;100552.20;;;18.91;31.65
40171;BME280;37650;52.790;18.268;2023-04-28T15:22:10;100547.27;;;18.48;32.08
40171;BME280;37650;52.790;18.268;2023-04-28T15:25:31;100541.83;;;18.12;32.76
40171;BME280;37650;52.790;18.268;2023-04-28T15:28:53;100538.08;;;17.80;33.56
40171;BME280;37650;52.790;18.268;2023-04-28T15:32:14;100542.42;;;17.46;33.86
40171;BME280;37650;52.790;18.268;2023-04-28T15:35:36;100539.96;;;17.22;34.87
40171;BME280;37650;52.790;18.268;2023-04-28T15:38:57;100537.52;;;17.16;35.27
40171;BME280;37650;52.790;18.268;2023-04-28T15:42:19;100530.77;;;17.13;35.36
40171;BME280;37650;52.790;18.268;2023-04-28T15:45:41;100527.11;;;17.12;35.77
40171;BME280;37650;52.790;18.268;2023-04-28T15:49:04;100527.13;;;17.15;35.87
40171;BME280;37650;52.790;18.268;2023-04-28T15:52:25;100523.49;;;17.05;35.52
40171;BME280;37650;52.790;18.268;2023-04-28T15:55:47;100521.88;;;16.91;36.27
40171;BME280;37650;52.790;18.268;2023-04-28T15:59:08;100520.77;;;16.86;36.37
40171;BME280;37650;52.790;18.268;2023-04-28T16:02:37;100517.56;;;16.80;36.54
40171;BME280;37650;52.790;18.268;2023-04-28T16:06:00;100517.94;;;16.59;36.66
40171;BME280;37650;52.790;18.268;2023-04-28T16:09:23;100511.30;;;16.52;36.89
40171;BME280;37650;52.790;18.268;2023-04-28T16:12:45;100513.50;;;16.41;37.31
40171;BME280;37650;52.790;18.268;2023-04-28T16:16:06;100511.27;;;16.22;37.34
40171;BME280;37650;52.790;18.268;2023-04-28T16:19:27;100510.66;;;16.05;37.77
40171;BME280;37650;52.790;18.268;2023-04-28T16:22:49;100503.09;;;15.92;38.14
40171;BME280;37650;52.790;18.268;2023-04-28T16:26:10;100503.66;;;15.73;38.40
40171;BME280;37650;52.790;18.268;2023-04-28T16:29:32;100500.83;;;15.54;38.73
40171;BME280;37650;52.790;18.268;2023-04-28T16:32:53;100495.59;;;15.46;38.99
40171;BME280;37650;52.790;18.268;2023-04-28T16:36:18;100492.35;;;15.35;39.52
40171;BME280;37650;52.790;18.268;2023-04-28T16:39:40;100484.25;;;15.21;40.13
40171;BME280;37650;52.790;18.268;2023-04-28T16:43:01;100482.98;;;15.18;40.35
40171;BME280;37650;52.790;18.268;2023-04-28T16:46:23;100480.24;;;15.17;40.53
40171;BME280;37650;52.790;18.268;2023-04-28T16:49:44;100477.25;;;15.10;40.47
40171;BME280;37650;52.790;18.268;2023-04-28T16:53:06;100472.27;;;14.95;40.79
40171;BME280;37650;52.790;18.268;2023-04-28T16:56:28;100474.23;;;14.88;41.46
40171;BME280;37650;52.790;18.268;2023-04-28T16:59:50;100475.61;;;14.82;41.71
40171;BME280;37650;52.790;18.268;2023-04-28T17:03:12;100472.45;;;14.71;41.76
40171;BME280;37650;52.790;18.268;2023-04-28T17:06:34;100472.29;;;14.57;42.03
40171;BME280;37650;52.790;18.268;2023-04-28T17:09:55;100468.16;;;14.45;42.36
40171;BME280;37650;52.790;18.268;2023-04-28T17:13:19;100465.81;;;14.32;42.78
40171;BME280;37650;52.790;18.268;2023-04-28T17:16:41;100467.98;;;14.21;43.28
40171;BME280;37650;52.790;18.268;2023-04-28T17:20:05;100468.73;;;14.10;43.44
40171;BME280;37650;52.790;18.268;2023-04-28T17:23:28;100464.95;;;13.97;43.79
40171;BME280;37650;52.790;18.268;2023-04-28T17:26:50;100465.02;;;13.85;44.25
40171;BME280;37650;52.790;18.268;2023-04-28T17:30:13;100464.09;;;13.71;44.62
40171;BME280;37650;52.790;18.268;2023-04-28T17:33:35;100464.08;;;13.57;45.15
40171;BME280;37650;52.790;18.268;2023-04-28T17:36:57;100462.10;;;13.43;45.59
40171;BME280;37650;52.790;18.268;2023-04-28T17:40:19;100460.28;;;13.33;45.88
40171;BME280;37650;52.790;18.268;2023-04-28T17:43:44;100457.60;;;13.20;46.37
40171;BME280;37650;52.790;18.268;2023-04-28T17:47:08;100460.95;;;13.07;46.87